Strona główna
METAR-TAF:

METAR-TAF

Lotnisko :

Kbely

Praga, Czechy

Szerokość geograficzna: 50-07-17N, Długość geograficzna: 14-32-37E, wysokość: 286 m

Aktualna obserwacja pogody

Raport powstał 1 godzina i 1 minut temu, godzina 09:00 UTC
Wiatr 7 kt od północno-północny zachód, zmienny między zachodnio-północny zachód i północ
Temperatura 24°C
Wilgotność 54%
Ciśnienie 1020 hPa
Widzialność 10 km lub więcej
Brak chmur poniżej 1500 m i brak chmur cumulonimbus

METAR: LKKB 180900Z 33007KT 290V360 CAVOK 24/14 Q1020 NOSIG

czas: 12:01 (10:01 UTC)

Prognoza

Raport powstał 5 godziny i 1 minut temu, godzina 05:00 UTC
Prognoza ważna od 18 godzina 06 UTC do 19 godzina 06 UTC
Wiatr 5 kt od północ
Widzialność 10 km lub więcej
Brak chmur poniżej 1500 m i brak chmur cumulonimbus
Przejściowo
od 18 godzina 10 UTC do 18 godzina 14 UTC
Wiatr 8 kt od północno-północny wschód

TAF: LKKB 180500Z 1806/1906 35005KT CAVOK TEMPO 1810/1814 02008KT

Obserwacja i prognoza pogody dla ponad 4000 lotnisk (raport METAR i TAF).

Dostępne stacje oznaczono żółtymi i czerwonymi punktami na mapie.

Najedź kursorem aby zobaczyć nazwę stacji.

Kliknij aby zobaczyć obserwacje i prognozy pogody.

Aby zmienić mapę: kliknij na zielony przycisk z czarnym krzyżykiem, aby powiększyć; na zielony przycisk z myślnikiem, aby pomniejszyć; na zielone strzałki, aby przejść do map sąsiednich.


METAR-TAF: